Time;durP1;ratioP1;P1;durP2;ratioP2;P2;SDS_P1;SDS_P2;PMS_P1;PMS_P2;Temp;Humidity;BMP_temperature;BMP_pressure;BME280_temperature;BME280_humidity;BME280_pressure;Samples;Min_cycle;Max_cycle;Signal;HPM_P1;HPM_P2
2021/06/06 00:01:43;;;;;;;15.07;9.07;;;16.10;83.30;;;;;;5075126;28;20025;-82
2021/06/06 00:04:13;;;;;;;13.07;8.20;;;16.10;83.40;;;;;;5074955;28;20384;-82
2021/06/06 00:06:39;;;;;;;11.27;8.20;;;16.10;83.60;;;;;;5074804;28;20127;-82
2021/06/06 00:09:07;;;;;;;12.63;7.97;;;16.00;83.60;;;;;;5074709;28;20060;-82
2021/06/06 00:11:38;;;;;;;14.52;8.40;;;16.00;83.70;;;;;;5075269;28;20487;-82
2021/06/06 00:14:09;;;;;;;14.07;7.93;;;16.00;83.70;;;;;;5075418;28;20522;-82
2021/06/06 00:16:39;;;;;;;12.60;8.23;;;16.10;83.70;;;;;;5074625;28;20031;-82
2021/06/06 00:19:05;;;;;;;15.30;8.40;;;16.10;83.70;;;;;;5074542;28;20028;-82
2021/06/06 00:21:31;;;;;;;12.38;8.68;;;16.10;83.60;;;;;;5074669;28;20113;-80
2021/06/06 00:23:58;;;;;;;12.60;7.78;;;16.10;83.70;;;;;;5075777;28;20377;-82
2021/06/06 00:26:25;;;;;;;11.30;8.27;;;16.10;83.70;;;;;;5074914;28;20069;-82
2021/06/06 00:28:51;;;;;;;12.25;7.75;;;16.10;83.70;;;;;;5074651;28;20043;-82
2021/06/06 00:31:17;;;;;;;13.68;8.38;;;16.10;83.70;;;;;;5074477;28;20025;-81
2021/06/06 00:33:43;;;;;;;14.55;8.63;;;16.10;83.60;;;;;;5074542;28;20488;-82
2021/06/06 00:36:09;;;;;;;12.55;8.15;;;16.10;83.60;;;;;;5074055;28;20036;-82
2021/06/06 00:38:35;;;;;;;15.05;9.20;;;16.10;83.70;;;;;;5074461;28;20031;-82
2021/06/06 00:41:02;;;;;;;14.82;9.10;;;16.00;83.60;;;;;;5074946;28;20455;-82
2021/06/06 00:47:07;;;;;;;11.80;8.18;;;16.00;83.80;;;;;;5075954;28;20444;-82
2021/06/06 00:49:33;;;;;;;13.30;8.07;;;16.00;83.80;;;;;;5073931;28;20392;-81
2021/06/06 00:52:00;;;;;;;13.98;8.48;;;15.90;83.70;;;;;;5073872;28;20025;-82
2021/06/06 00:54:29;;;;;;;15.52;9.00;;;16.00;83.80;;;;;;5075271;28;20039;-81
2021/06/06 00:57:04;;;;;;;15.13;9.38;;;16.00;83.80;;;;;;5075243;28;20052;-82
2021/06/06 00:59:31;;;;;;;16.13;9.15;;;16.10;83.80;;;;;;5073755;28;20028;-82
2021/06/06 01:01:57;;;;;;;16.05;9.35;;;16.00;83.60;;;;;;5073958;28;20025;-82
2021/06/06 01:04:23;;;;;;;15.48;9.55;;;16.10;83.60;;;;;;5075045;28;20037;-82
2021/06/06 01:06:54;;;;;;;13.40;8.55;;;16.10;83.60;;;;;;5053216;28;20044;-82
2021/06/06 01:09:23;;;;;;;13.43;8.98;;;16.10;83.60;;;;;;5036814;28;20131;-82
2021/06/06 01:12:11;;;;;;;15.95;8.73;;;16.00;83.50;;;;;;5053138;28;20416;-82
2021/06/06 01:15:02;;;;;;;14.13;8.43;;;16.00;83.50;;;;;;5036064;28;20025;-82
2021/06/06 01:17:31;;;;;;;14.23;8.82;;;16.00;83.60;;;;;;5033041;28;20124;-82
2021/06/06 01:20:42;;;;;;;15.35;9.20;;;16.00;83.50;;;;;;5036419;28;20021;-82
2021/06/06 01:23:30;;;;;;;13.82;8.43;;;16.00;83.50;;;;;;5020125;28;20083;-82
2021/06/06 01:26:03;;;;;;;16.20;9.30;;;16.00;83.60;;;;;;5035794;28;20037;-81
2021/06/06 01:29:07;;;;;;;14.43;8.85;;;16.00;83.50;;;;;;5036081;28;20025;-82
2021/06/06 01:31:37;;;;;;;12.07;8.77;;;16.00;83.60;;;;;;5035928;28;20025;-82
2021/06/06 01:34:06;;;;;;;14.05;8.88;;;16.00;83.50;;;;;;5052728;28;20538;-82
2021/06/06 01:36:45;;;;;;;14.75;8.80;;;16.00;84.20;;;;;;5035929;28;20090;-81
2021/06/06 01:39:34;;;;;;;14.52;8.88;;;16.00;83.50;;;;;;5074431;28;20031;-81
2021/06/06 01:42:06;;;;;;;12.52;8.35;;;16.00;83.60;;;;;;5073267;28;20044;-82
2021/06/06 01:44:35;;;;;;;14.88;8.77;;;16.00;83.60;;;;;;5073337;28;20468;-82
2021/06/06 01:47:15;;;;;;;14.18;8.82;;;16.00;83.40;;;;;;5073554;28;20035;-82
2021/06/06 01:50:06;;;;;;;12.85;8.38;;;16.00;83.40;;;;;;5073133;28;20025;-82
2021/06/06 01:52:34;;;;;;;13.80;8.73;;;16.00;83.40;;;;;;5073379;28;20119;-82
2021/06/06 01:55:06;;;;;;;12.80;8.70;;;16.00;83.50;;;;;;5072617;28;20121;-83
2021/06/06 01:57:32;;;;;;;13.38;8.75;;;16.00;83.40;;;;;;5073133;28;20017;-82
2021/06/06 02:00:00;;;;;;;13.90;8.70;;;16.00;83.50;;;;;;5072987;28;20021;-82
2021/06/06 02:02:26;;;;;;;14.48;8.15;;;16.00;83.50;;;;;;5073074;28;20451;-81
2021/06/06 02:04:52;;;;;;;12.10;8.77;;;16.00;83.40;;;;;;5073076;28;20052;-82
2021/06/06 02:07:32;;;;;;;13.98;9.00;;;16.00;83.40;;;;;;5072618;28;20040;-82
2021/06/06 02:10:18;;;;;;;16.52;9.65;;;16.00;83.40;;;;;;5073114;28;20426;-82
2021/06/06 02:12:57;;;;;;;14.75;8.85;;;16.00;83.40;;;;;;5059214;28;20813;-82
2021/06/06 02:15:30;;;;;;;16.60;9.18;;;16.10;83.50;;;;;;5072675;28;20094;-82
2021/06/06 02:17:57;;;;;;;15.48;9.13;;;16.10;83.30;;;;;;5072331;28;20012;-82
2021/06/06 02:20:30;;;;;;;13.85;9.32;;;16.00;83.20;;;;;;5073180;28;20012;-82
2021/06/06 02:22:57;;;;;;;12.85;8.45;;;16.00;83.30;;;;;;5072843;28;20085;-82
2021/06/06 02:25:24;;;;;;;16.38;9.40;;;16.00;83.30;;;;;;5072748;28;20437;-82
2021/06/06 02:28:12;;;;;;;17.90;8.95;;;16.00;83.40;;;;;;5072152;28;20020;-82
2021/06/06 02:30:53;;;;;;;14.88;9.02;;;16.00;83.60;;;;;;5072987;28;20032;-82
2021/06/06 02:33:35;;;;;;;15.40;9.70;;;15.90;83.60;;;;;;5072784;28;20027;-82
2021/06/06 02:36:05;;;;;;;14.27;8.82;;;15.90;83.60;;;;;;5072497;28;20437;-82
2021/06/06 02:38:41;;;;;;;15.82;9.55;;;15.80;83.80;;;;;;5072108;28;20017;-82
2021/06/06 02:41:19;;;;;;;14.38;9.63;;;15.90;83.90;;;;;;5073751;28;20387;-82
2021/06/06 02:43:51;;;;;;;16.42;10.95;;;15.90;83.80;;;;;;5073732;28;20044;-82
2021/06/06 02:46:21;;;;;;;17.17;10.05;;;15.90;83.90;;;;;;5072497;28;20120;-82
2021/06/06 02:48:52;;;;;;;14.93;9.60;;;15.90;83.90;;;;;;5072300;28;20377;-82
2021/06/06 02:51:22;;;;;;;20.10;10.43;;;15.80;83.90;;;;;;5072501;28;20383;-82
2021/06/06 02:54:00;;;;;;;17.17;10.65;;;15.90;84.00;;;;;;5069386;28;20032;-82
2021/06/06 02:57:00;;;;;;;20.15;10.90;;;15.90;84.00;;;;;;5072215;28;20119;-82
2021/06/06 02:59:38;;;;;;;17.85;9.55;;;15.90;84.00;;;;;;5009508;28;20499;-82
2021/06/06 03:02:08;;;;;;;16.30;10.35;;;15.90;84.00;;;;;;5072276;28;20028;-82
2021/06/06 03:04:40;;;;;;;17.95;11.15;;;15.90;84.00;;;;;;5074138;28;20027;-82
2021/06/06 03:07:14;;;;;;;19.15;10.80;;;15.90;84.10;;;;;;5072600;28;20032;-82
2021/06/06 03:09:40;;;;;;;16.42;9.93;;;15.80;84.10;;;;;;5072533;28;20491;-82
2021/06/06 03:12:09;;;;;;;19.80;11.55;;;15.80;84.30;;;;;;5072295;28;20062;-82
2021/06/06 03:14:38;;;;;;;19.73;11.05;;;15.70;84.30;;;;;;5072210;28;20150;-82
2021/06/06 03:17:12;;;;;;;15.75;9.95;;;15.70;84.30;;;;;;5072109;28;20091;-82
2021/06/06 03:19:47;;;;;;;18.48;11.52;;;15.70;84.40;;;;;;5072363;28;20471;-82
2021/06/06 03:22:18;;;;;;;17.98;10.40;;;15.70;84.50;;;;;;5072193;28;20031;-82
2021/06/06 03:25:09;;;;;;;17.23;10.55;;;15.70;84.50;;;;;;5072118;28;20020;-82
2021/06/06 03:27:40;;;;;;;19.20;10.77;;;15.70;84.50;;;;;;5072484;28;20480;-82
2021/06/06 03:30:24;;;;;;;20.17;11.35;;;15.80;84.50;;;;;;5072088;28;20031;-82
2021/06/06 03:32:51;;;;;;;19.55;11.90;;;15.80;84.50;;;;;;5072096;28;20060;-82
2021/06/06 03:35:17;;;;;;;22.10;11.82;;;15.80;84.50;;;;;;5072108;28;20028;-81
2021/06/06 03:37:43;;;;;;;20.95;12.23;;;15.70;84.50;;;;;;5072829;28;20021;-82
2021/06/06 03:40:10;;;;;;;21.38;12.70;;;15.70;84.50;;;;;;5075344;28;20021;-81
2021/06/06 03:42:37;;;;;;;19.42;11.48;;;15.70;84.50;;;;;;5075321;28;20016;-81
2021/06/06 03:45:08;;;;;;;17.70;11.20;;;15.70;84.40;;;;;;5075763;28;20047;-81
2021/06/06 03:47:34;;;;;;;21.42;12.20;;;15.70;84.50;;;;;;5075812;28;20476;-82
2021/06/06 03:50:00;;;;;;;23.73;13.45;;;15.70;84.50;;;;;;5076035;28;20016;-82
2021/06/06 03:52:26;;;;;;;19.38;11.40;;;15.70;84.60;;;;;;5075379;28;20379;-82
2021/06/06 03:54:53;;;;;;;18.63;10.95;;;15.70;84.60;;;;;;5075418;28;20108;-82
2021/06/06 03:57:21;;;;;;;18.27;10.65;;;15.70;84.50;;;;;;5075232;28;20032;-82
2021/06/06 03:59:46;;;;;;;18.77;11.23;;;15.70;84.50;;;;;;5076355;28;20017;-82
2021/06/06 04:02:12;;;;;;;17.27;11.20;;;15.70;84.40;;;;;;5076501;28;20027;-82
2021/06/06 04:08:00;;;;;;;19.90;12.07;;;15.70;84.50;;;;;;5076764;28;20059;-82
2021/06/06 04:10:25;;;;;;;21.30;11.82;;;15.70;84.40;;;;;;5076719;28;20056;-82
2021/06/06 04:12:51;;;;;;;18.17;11.98;;;15.70;84.50;;;;;;5075418;28;20029;-81
2021/06/06 04:15:17;;;;;;;18.35;12.10;;;15.70;84.50;;;;;;5075234;28;20036;-82
2021/06/06 04:17:45;;;;;;;24.65;13.93;;;15.70;84.50;;;;;;5076536;28;20047;-82
2021/06/06 04:20:12;;;;;;;21.20;13.45;;;15.60;84.50;;;;;;5075663;28;20043;-83
2021/06/06 04:22:38;;;;;;;21.13;12.70;;;15.60;84.60;;;;;;5075194;28;20033;-81
2021/06/06 04:25:08;;;;;;;18.55;12.02;;;15.60;84.50;;;;;;5075462;28;20039;-81
2021/06/06 04:27:34;;;;;;;21.70;11.85;;;15.70;84.60;;;;;;5074535;28;20021;-82
2021/06/06 04:30:00;;;;;;;21.08;11.52;;;15.70;84.50;;;;;;5074424;28;20013;-82
2021/06/06 04:32:26;;;;;;;20.23;11.48;;;15.70;84.40;;;;;;5074816;28;20035;-82
2021/06/06 04:34:52;;;;;;;17.95;11.13;;;15.80;84.40;;;;;;5074921;28;20016;-82
2021/06/06 04:37:18;;;;;;;19.73;12.07;;;15.80;84.30;;;;;;5075865;28;20387;-82
2021/06/06 04:39:44;;;;;;;18.10;11.10;;;15.80;84.30;;;;;;5075743;28;20488;-82
2021/06/06 04:42:13;;;;;;;18.83;11.95;;;15.80;84.30;;;;;;5073539;28;20016;-82
2021/06/06 04:44:39;;;;;;;19.50;11.50;;;15.80;84.20;;;;;;5074007;28;20012;-81
2021/06/06 04:47:08;;;;;;;21.27;12.32;;;15.80;84.20;;;;;;5074097;28;20029;-82
2021/06/06 04:49:39;;;;;;;18.88;11.52;;;15.80;84.20;;;;;;5073431;28;20046;-82
2021/06/06 04:52:06;;;;;;;17.92;11.85;;;15.80;84.30;;;;;;5074466;28;20078;-82
2021/06/06 04:54:35;;;;;;;24.75;12.35;;;15.80;84.30;;;;;;5075134;28;20034;-82
2021/06/06 04:57:01;;;;;;;18.88;11.57;;;15.80;84.40;;;;;;5037141;28;20029;-82
2021/06/06 04:59:27;;;;;;;17.35;11.82;;;15.80;84.40;;;;;;5037411;28;20511;-82
2021/06/06 05:01:52;;;;;;;16.08;11.60;;;15.80;84.40;;;;;;5037597;28;20032;-82
2021/06/06 05:04:18;;;;;;;20.52;11.88;;;15.80;84.40;;;;;;5055335;28;20021;-82
2021/06/06 05:06:44;;;;;;;18.30;11.88;;;15.70;84.40;;;;;;5055091;28;20023;-82
2021/06/06 05:09:10;;;;;;;20.35;11.35;;;15.70;84.50;;;;;;5037118;28;20484;-81
2021/06/06 05:11:35;;;;;;;15.30;10.50;;;15.70;84.60;;;;;;5037076;28;20074;-81
2021/06/06 05:14:03;;;;;;;16.58;10.90;;;15.70;84.60;;;;;;5054629;28;20076;-82
2021/06/06 05:16:29;;;;;;;15.40;10.45;;;15.70;84.60;;;;;;5037246;28;20488;-81
2021/06/06 05:18:56;;;;;;;15.07;10.80;;;15.70;84.60;;;;;;5036767;28;20017;-81
2021/06/06 05:21:23;;;;;;;14.50;10.30;;;15.70;84.60;;;;;;5036984;28;20071;-82
2021/06/06 05:23:48;;;;;;;15.23;10.35;;;15.70;84.70;;;;;;5034264;28;20060;-81
2021/06/06 05:26:14;;;;;;;18.05;11.40;;;15.70;84.80;;;;;;5037006;28;20021;-82
2021/06/06 05:28:40;;;;;;;13.27;9.70;;;15.60;84.80;;;;;;5037342;28;20075;-82
2021/06/06 05:31:07;;;;;;;13.85;10.38;;;15.60;84.90;;;;;;5037045;28;20427;-82
2021/06/06 05:33:33;;;;;;;13.85;9.20;;;15.60;84.90;;;;;;5036938;28;20024;-81
2021/06/06 05:35:59;;;;;;;13.15;9.30;;;15.70;85.00;;;;;;5036310;28;20021;-81
2021/06/06 05:38:28;;;;;;;16.10;9.57;;;15.70;85.00;;;;;;5036754;28;20032;-82
2021/06/06 05:40:54;;;;;;;12.68;9.13;;;15.60;85.00;;;;;;5036840;28;20076;-81
2021/06/06 05:43:20;;;;;;;12.15;9.10;;;15.60;85.10;;;;;;5054492;28;20422;-81
2021/06/06 05:45:47;;;;;;;11.93;8.52;;;15.70;85.10;;;;;;5036598;28;20508;-81
2021/06/06 05:48:14;;;;;;;13.65;8.50;;;15.70;85.20;;;;;;5053797;28;20032;-81
2021/06/06 05:50:42;;;;;;;12.52;8.13;;;15.70;85.10;;;;;;5036032;28;20029;-81
2021/06/06 05:53:08;;;;;;;11.25;8.25;;;15.70;85.10;;;;;;5036228;28;20051;-81
2021/06/06 05:55:35;;;;;;;10.68;7.72;;;15.80;85.10;;;;;;5049505;28;20110;-81
2021/06/06 05:58:00;;;;;;;11.80;8.35;;;15.80;85.00;;;;;;5073315;28;20415;-82
2021/06/06 06:00:33;;;;;;;11.98;8.60;;;15.80;85.00;;;;;;5072494;28;20024;-81
2021/06/06 06:03:00;;;;;;;12.45;8.15;;;15.80;85.10;;;;;;5072711;28;20108;-81
2021/06/06 06:05:25;;;;;;;10.63;8.30;;;15.90;85.00;;;;;;5073060;28;20028;-82
2021/06/06 06:07:51;;;;;;;15.35;8.90;;;15.90;84.90;;;;;;5072472;28;20029;-81
2021/06/06 06:10:23;;;;;;;11.45;8.55;;;16.00;84.90;;;;;;5072522;28;20032;-81
2021/06/06 06:12:49;;;;;;;12.55;8.40;;;16.00;84.90;;;;;;5073374;28;20024;-81
2021/06/06 06:15:16;;;;;;;13.63;9.82;;;16.00;84.80;;;;;;5072590;28;20103;-82
2021/06/06 06:17:42;;;;;;;11.80;8.10;;;16.10;84.80;;;;;;5072432;28;20035;-81
2021/06/06 06:20:11;;;;;;;13.27;8.88;;;16.10;84.70;;;;;;5072970;28;20017;-82
2021/06/06 06:22:37;;;;;;;12.70;9.02;;;16.10;85.30;;;;;;5072629;28;20487;-81
2021/06/06 06:25:05;;;;;;;13.25;8.77;;;16.10;84.80;;;;;;5072228;28;20082;-81
2021/06/06 06:27:31;;;;;;;12.25;8.95;;;16.10;84.70;;;;;;5072333;28;20017;-81
2021/06/06 06:29:57;;;;;;;14.77;8.55;;;16.20;84.60;;;;;;5072103;28;20086;-82
2021/06/06 06:32:22;;;;;;;13.07;9.30;;;16.20;84.60;;;;;;5072342;28;20024;-82
2021/06/06 06:34:48;;;;;;;13.90;8.77;;;16.20;84.50;;;;;;5072505;28;20024;-81
2021/06/06 06:37:14;;;;;;;11.35;8.50;;;16.20;84.50;;;;;;5072304;28;20040;-82
2021/06/06 06:39:40;;;;;;;13.13;9.77;;;16.30;84.50;;;;;;5072006;28;20104;-81
2021/06/06 06:42:06;;;;;;;14.32;8.82;;;16.30;84.30;;;;;;5072225;28;20502;-81
2021/06/06 06:44:32;;;;;;;11.68;8.80;;;16.30;84.20;;;;;;5072049;28;20107;-82
2021/06/06 06:46:57;;;;;;;11.05;8.68;;;16.40;84.20;;;;;;5072340;28;20514;-82
2021/06/06 06:49:23;;;;;;;11.43;8.30;;;16.40;84.10;;;;;;5072477;28;20028;-81
2021/06/06 06:51:49;;;;;;;9.43;7.55;;;16.40;84.00;;;;;;5072137;28;20020;-81
2021/06/06 06:54:15;;;;;;;9.50;7.95;;;16.40;84.00;;;;;;5072065;28;20372;-81
2021/06/06 06:56:40;;;;;;;10.48;7.97;;;16.40;83.80;;;;;;5071746;28;20044;-81
2021/06/06 06:59:06;;;;;;;10.32;8.18;;;16.40;83.90;;;;;;5072035;28;20013;-80
2021/06/06 07:01:32;;;;;;;9.05;7.63;;;16.50;83.80;;;;;;5071926;28;20021;-80
2021/06/06 07:03:58;;;;;;;8.80;7.55;;;16.50;83.70;;;;;;5073228;28;20032;-80
2021/06/06 07:06:24;;;;;;;9.45;7.55;;;16.60;83.60;;;;;;5071679;28;20071;-80
2021/06/06 07:08:49;;;;;;;9.55;7.00;;;16.70;83.40;;;;;;5072475;28;20468;-81
2021/06/06 07:11:19;;;;;;;9.15;7.60;;;16.80;83.20;;;;;;5071827;28;20027;-80
2021/06/06 07:13:46;;;;;;;11.48;7.75;;;16.80;83.10;;;;;;5074626;28;20052;-80
2021/06/06 07:16:12;;;;;;;9.00;7.55;;;16.90;83.00;;;;;;5075823;28;20557;-81
2021/06/06 07:18:39;;;;;;;8.82;6.93;;;16.90;82.80;;;;;;5076692;28;20173;-80
2021/06/06 07:21:15;;;;;;;9.63;7.35;;;16.90;82.60;;;;;;5075675;28;20107;-81
2021/06/06 07:23:42;;;;;;;9.05;7.40;;;16.90;82.50;;;;;;5075720;28;20024;-81
2021/06/06 07:26:18;;;;;;;7.78;6.53;;;16.90;82.60;;;;;;5075434;28;20549;-80
2021/06/06 07:28:44;;;;;;;7.55;6.60;;;16.90;82.60;;;;;;5075234;28;20043;-81
2021/06/06 07:31:12;;;;;;;8.07;5.90;;;17.00;82.50;;;;;;5075347;28;20037;-81
2021/06/06 07:33:42;;;;;;;7.72;6.82;;;17.00;82.30;;;;;;5075605;28;20555;-82
2021/06/06 07:36:10;;;;;;;7.35;5.75;;;17.10;82.20;;;;;;5075282;28;20013;-81
2021/06/06 07:38:36;;;;;;;8.90;6.72;;;17.10;82.10;;;;;;5075177;28;20028;-81
2021/06/06 07:41:03;;;;;;;7.13;5.90;;;17.20;81.90;;;;;;5075881;28;20372;-81
2021/06/06 07:43:28;;;;;;;8.60;7.20;;;17.20;81.80;;;;;;5075224;28;20025;-82
2021/06/06 07:45:55;;;;;;;8.48;6.63;;;17.20;81.60;;;;;;5070732;28;20051;-82
2021/06/06 07:48:21;;;;;;;9.35;7.28;;;17.20;81.60;;;;;;5075359;28;20028;-82
2021/06/06 07:50:48;;;;;;;8.57;6.63;;;17.20;81.60;;;;;;5075399;28;20082;-81
2021/06/06 07:53:15;;;;;;;7.70;6.90;;;17.20;81.50;;;;;;5075239;28;20452;-81
2021/06/06 07:55:41;;;;;;;9.55;7.45;;;17.20;81.50;;;;;;5074912;28;20055;-81
2021/06/06 07:58:07;;;;;;;8.00;6.70;;;17.20;81.50;;;;;;5075357;28;20048;-81
2021/06/06 08:00:42;;;;;;;7.95;6.45;;;17.20;81.40;;;;;;5075520;28;20514;-81
2021/06/06 08:03:08;;;;;;;9.32;6.55;;;17.20;81.40;;;;;;5075070;28;20017;-81
2021/06/06 08:05:39;;;;;;;7.25;5.80;;;17.20;81.30;;;;;;5075285;28;20400;-81
2021/06/06 08:08:06;;;;;;;6.68;5.97;;;17.20;81.20;;;;;;5075195;28;20514;-81
2021/06/06 08:10:34;;;;;;;5.88;5.13;;;17.20;81.20;;;;;;5075284;28;20036;-83
2021/06/06 08:13:00;;;;;;;6.30;5.57;;;17.30;81.20;;;;;;5076562;28;20028;-77
2021/06/06 08:15:27;;;;;;;6.78;5.35;;;17.40;81.00;;;;;;5073659;28;20036;-76
2021/06/06 08:17:54;;;;;;;5.88;4.95;;;17.40;80.80;;;;;;5075718;28;20071;-75
2021/06/06 08:20:25;;;;;;;7.80;5.63;;;17.50;80.60;;;;;;5075229;28;20020;-77
2021/06/06 08:22:51;;;;;;;7.53;6.13;;;17.50;80.40;;;;;;5075145;28;20032;-77
2021/06/06 08:25:18;;;;;;;6.65;5.38;;;17.50;80.20;;;;;;5072650;28;20035;-75
2021/06/06 08:27:44;;;;;;;5.75;5.00;;;17.50;80.20;;;;;;5073513;28;20024;-77
2021/06/06 08:30:29;;;;;;;9.05;5.90;;;17.50;80.20;;;;;;5073790;28;20108;-76
2021/06/06 08:32:55;;;;;;;6.65;5.63;;;17.60;80.00;;;;;;5075411;28;20055;-77
2021/06/06 08:35:21;;;;;;;5.10;4.60;;;17.60;79.90;;;;;;5073629;28;20500;-78
2021/06/06 08:37:47;;;;;;;5.57;4.97;;;17.70;79.60;;;;;;5073576;28;20115;-77
2021/06/06 08:40:20;;;;;;;5.45;4.95;;;17.80;79.20;;;;;;5073390;28;20025;-76
2021/06/06 08:42:46;;;;;;;5.45;4.53;;;18.00;79.20;;;;;;5074853;28;20025;-76
2021/06/06 08:45:28;;;;;;;5.13;4.63;;;18.00;79.00;;;;;;5074689;28;20143;-77
2021/06/06 08:47:56;;;;;;;5.07;4.18;;;18.10;78.90;;;;;;5073135;28;20078;-78
2021/06/06 08:50:26;;;;;;;4.97;4.45;;;18.10;78.50;;;;;;5073313;28;20415;-77
2021/06/06 08:53:26;;;;;;;4.43;3.95;;;18.20;78.40;;;;;;5074484;28;20035;-78
2021/06/06 08:56:05;;;;;;;5.15;4.15;;;18.30;78.20;;;;;;5072950;28;20040;-76
2021/06/06 08:58:44;;;;;;;4.72;4.30;;;18.30;77.90;;;;;;5074230;28;20023;-75
2021/06/06 09:01:32;;;;;;;6.55;4.72;;;18.30;77.70;;;;;;5074314;28;20044;-75
2021/06/06 09:04:02;;;;;;;4.70;4.20;;;18.30;77.60;;;;;;5074311;28;20078;-75
2021/06/06 09:06:40;;;;;;;5.72;4.55;;;18.30;77.50;;;;;;5072753;28;20471;-75
2021/06/06 09:09:08;;;;;;;5.90;4.57;;;18.40;77.20;;;;;;5072975;28;20444;-76
2021/06/06 09:11:34;;;;;;;5.82;4.50;;;18.50;76.50;;;;;;5072815;28;20052;-77
2021/06/06 09:14:00;;;;;;;5.97;3.97;;;18.50;76.60;;;;;;5072693;28;20119;-77
2021/06/06 09:16:48;;;;;;;5.00;3.90;;;18.50;76.50;;;;;;5072873;28;20111;-76
2021/06/06 09:19:14;;;;;;;4.82;4.10;;;18.60;76.20;;;;;;5073889;28;20484;-77
2021/06/06 09:21:58;;;;;;;6.32;4.32;;;18.70;76.00;;;;;;5072418;28;20078;-77
2021/06/06 09:24:37;;;;;;;6.90;4.13;;;18.80;75.90;;;;;;5073791;28;20392;-71
2021/06/06 09:27:26;;;;;;;7.20;5.15;;;18.90;75.70;;;;;;5072387;28;20093;-77
2021/06/06 09:33:21;;;;;;;4.70;4.10;;;18.90;74.60;;;;;;5074182;28;20097;-76
2021/06/06 09:35:56;;;;;;;5.55;4.38;;;18.90;74.80;;;;;;5073456;28;20035;-78
2021/06/06 09:38:31;;;;;;;4.88;4.10;;;18.90;74.50;;;;;;5073891;28;20080;-78
2021/06/06 09:41:12;;;;;;;5.53;4.43;;;19.00;74.60;;;;;;5072928;28;20063;-79
2021/06/06 09:43:37;;;;;;;4.95;4.30;;;19.10;74.40;;;;;;5072744;28;20047;-76
2021/06/06 09:46:12;;;;;;;6.10;4.03;;;19.20;74.20;;;;;;5072242;28;20029;-76
2021/06/06 09:48:43;;;;;;;6.40;4.40;;;19.30;73.70;;;;;;5072273;28;20119;-76
2021/06/06 09:51:28;;;;;;;4.32;3.38;;;19.30;73.60;;;;;;5072416;28;20051;-76
2021/06/06 09:53:59;;;;;;;5.53;3.40;;;19.30;73.80;;;;;;5073494;28;20037;-77
2021/06/06 09:56:28;;;;;;;3.88;3.33;;;19.40;73.60;;;;;;5073436;28;20067;-79
2021/06/06 09:59:06;;;;;;;4.13;3.67;;;19.50;73.40;;;;;;5073398;28;20032;-78
2021/06/06 10:01:38;;;;;;;3.70;3.40;;;19.50;72.90;;;;;;5072083;28;20083;-77
2021/06/06 10:04:09;;;;;;;4.57;3.97;;;19.50;73.00;;;;;;5072141;28;20024;-78
2021/06/06 10:06:41;;;;;;;5.70;3.65;;;19.50;73.00;;;;;;5072020;28;20035;-77
2021/06/06 10:09:18;;;;;;;4.30;3.53;;;19.50;72.60;;;;;;5073524;28;20029;-78
2021/06/06 10:12:08;;;;;;;3.72;3.05;;;19.50;72.60;;;;;;5073494;28;20111;-77
2021/06/06 10:14:48;;;;;;;4.38;3.35;;;19.60;72.70;;;;;;5072221;28;20029;-77
2021/06/06 10:17:16;;;;;;;4.70;3.58;;;19.70;72.40;;;;;;5071575;28;20055;-77
2021/06/06 10:19:52;;;;;;;3.58;3.17;;;19.80;72.30;;;;;;5072985;28;20033;-77
2021/06/06 10:22:26;;;;;;;4.05;3.60;;;19.70;72.10;;;;;;5073004;28;20089;-81
2021/06/06 10:28:00;;;;;;;3.20;2.85;;;19.80;72.10;;;;;;5074432;28;19954;-79
2021/06/06 10:30:50;;;;;;;3.28;2.88;;;19.90;72.00;;;;;;5073665;28;20021;-81
2021/06/06 10:33:18;;;;;;;2.65;2.45;;;20.00;71.90;;;;;;5072518;28;20128;-81
2021/06/06 10:35:45;;;;;;;3.45;2.30;;;20.10;71.80;;;;;;5072238;28;20055;-82
2021/06/06 10:38:12;;;;;;;2.50;2.30;;;20.30;71.70;;;;;;5073887;28;20032;-81
2021/06/06 10:40:48;;;;;;;2.63;2.35;;;20.40;71.30;;;;;;5072196;28;20032;-81
2021/06/06 10:43:31;;;;;;;2.80;2.60;;;20.40;70.90;;;;;;5072080;28;20025;-81
2021/06/06 10:46:17;;;;;;;3.65;2.90;;;20.60;70.80;;;;;;5073250;28;20028;-82
2021/06/06 10:48:54;;;;;;;3.05;2.75;;;20.60;70.30;;;;;;5075110;28;20029;-80
2021/06/06 10:51:31;;;;;;;3.17;2.88;;;20.70;70.00;;;;;;5076196;28;20047;-76
2021/06/06 10:54:01;;;;;;;3.45;2.45;;;20.70;70.00;;;;;;5077826;28;20104;-78
2021/06/06 10:57:05;;;;;;;3.38;2.60;;;20.70;70.10;;;;;;5077492;28;20036;-77
2021/06/06 10:59:48;;;;;;;;;;;20.60;70.10;;;;;;5081458;28;20043;-78
2021/06/06 11:05:40;;;;;;;4.70;2.80;;;20.40;70.10;;;;;;5077225;28;20495;-75
2021/06/06 11:08:28;;;;;;;4.25;3.10;;;20.40;69.90;;;;;;5075645;28;20380;-79
2021/06/06 11:10:59;;;;;;;3.15;2.53;;;20.30;69.90;;;;;;5075209;28;20122;-75
2021/06/06 11:16:52;;;;;;;2.95;2.55;;;20.50;69.80;;;;;;5076887;28;20526;-80
2021/06/06 11:19:32;;;;;;;4.57;2.90;;;20.70;69.80;;;;;;5075455;28;20259;-80
2021/06/06 11:22:07;;;;;;;3.28;2.80;;;20.90;69.50;;;;;;5075080;28;20078;-78
2021/06/06 11:24:42;;;;;;;3.25;2.80;;;21.00;69.00;;;;;;5076262;28;20384;-78
2021/06/06 11:27:11;;;;;;;3.85;2.70;;;21.00;68.50;;;;;;5074856;28;20032;-78
2021/06/06 11:30:14;;;;;;;4.35;3.08;;;21.10;68.50;;;;;;5074943;28;20479;-78
2021/06/06 11:33:00;;;;;;;4.30;2.78;;;21.20;68.20;;;;;;4959148;28;20034;-80
2021/06/06 11:38:48;;;;;;;3.70;3.00;;;21.40;67.20;;;;;;4975753;28;20022;-81
2021/06/06 11:41:23;;;;;;;3.55;2.85;;;21.30;67.20;;;;;;4959970;28;20065;-83
2021/06/06 11:44:19;;;;;;;3.63;2.80;;;21.30;67.30;;;;;;4959437;28;20487;-84
2021/06/06 11:47:07;;;;;;;2.80;2.50;;;21.50;67.40;;;;;;4975686;28;20487;-81
2021/06/06 11:49:52;;;;;;;3.80;2.80;;;21.60;67.10;;;;;;4958869;28;20038;-79
2021/06/06 11:52:20;;;;;;;3.53;2.85;;;21.70;66.80;;;;;;4975275;28;20492;-82
2021/06/06 11:55:15;;;;;;;2.92;2.63;;;21.80;66.50;;;;;;4975064;28;20035;-80
2021/06/06 11:57:44;;;;;;;3.80;2.70;;;21.90;65.30;;;;;;4969542;28;20042;-80
2021/06/06 12:00:20;;;;;;;3.10;2.33;;;21.80;65.40;;;;;;4994210;28;20038;-79
2021/06/06 12:02:46;;;;;;;3.53;2.10;;;21.70;65.40;;;;;;4977863;28;20041;-84
2021/06/06 12:05:22;;;;;;;2.45;1.95;;;21.60;65.70;;;;;;4978424;28;20031;-83
2021/06/06 12:07:50;;;;;;;2.08;1.90;;;21.60;66.00;;;;;;4996507;28;20037;-83
2021/06/06 12:10:39;;;;;;;2.50;2.13;;;21.60;66.10;;;;;;5038242;28;20111;-83
2021/06/06 12:13:07;;;;;;;2.20;2.00;;;21.80;65.90;;;;;;5038134;28;20021;-81
2021/06/06 12:15:36;;;;;;;2.00;1.90;;;22.00;65.70;;;;;;5037001;28;20040;-83
2021/06/06 12:18:05;;;;;;;3.13;2.13;;;22.10;64.70;;;;;;5037422;28;20109;-85
2021/06/06 12:20:32;;;;;;;2.25;1.98;;;22.10;64.80;;;;;;5037483;28;20435;-80
2021/06/06 12:23:08;;;;;;;2.97;2.08;;;22.20;64.60;;;;;;5037503;28;20024;-79
2021/06/06 12:25:35;;;;;;;2.13;1.92;;;22.20;64.40;;;;;;5037318;28;20108;-79
2021/06/06 12:28:07;;;;;;;2.17;1.80;;;22.20;64.30;;;;;;5037303;28;20028;-79
2021/06/06 12:30:32;;;;;;;1.80;1.60;;;22.20;64.10;;;;;;5038379;28;20028;-86
2021/06/06 12:33:00;;;;;;;2.10;1.90;;;22.20;64.20;;;;;;5037503;28;20040;-80
2021/06/06 12:35:35;;;;;;;2.10;1.90;;;22.30;63.90;;;;;;5037188;28;20086;-80
2021/06/06 12:38:03;;;;;;;2.60;1.80;;;22.30;63.70;;;;;;5054948;28;20025;-80
2021/06/06 12:40:34;;;;;;;1.70;1.60;;;22.50;63.40;;;;;;5037233;28;20025;-80
2021/06/06 12:43:02;;;;;;;2.10;1.90;;;22.50;63.00;;;;;;5036985;28;20086;-80
2021/06/06 12:45:29;;;;;;;1.88;1.70;;;22.60;62.30;;;;;;5054962;28;20489;-80
2021/06/06 12:48:25;;;;;;;2.42;1.80;;;22.60;62.30;;;;;;5037163;28;20017;-80
2021/06/06 12:50:52;;;;;;;1.83;1.67;;;22.60;61.40;;;;;;5036921;28;20025;-78
2021/06/06 12:53:36;;;;;;;2.28;1.75;;;22.60;62.00;;;;;;5054384;28;20115;-79
2021/06/06 12:56:07;;;;;;;1.80;1.70;;;22.70;61.50;;;;;;5064453;28;20052;-79
2021/06/06 12:58:35;;;;;;;1.80;1.70;;;22.70;61.70;;;;;;5057739;28;20021;-79
2021/06/06 13:01:14;;;;;;;2.03;1.55;;;22.70;62.00;;;;;;5073224;28;20373;-79
2021/06/06 13:03:46;;;;;;;2.15;1.95;;;22.80;62.00;;;;;;5073310;28;20031;-80
2021/06/06 13:06:42;;;;;;;3.10;1.55;;;23.00;61.10;;;;;;5073120;28;20032;-79
2021/06/06 13:09:22;;;;;;;2.72;1.90;;;23.20;61.30;;;;;;5049443;28;20033;-79
2021/06/06 13:11:51;;;;;;;2.00;1.63;;;23.30;61.10;;;;;;5066439;28;20052;-79
2021/06/06 13:14:23;;;;;;;1.90;1.80;;;23.30;60.70;;;;;;5073426;28;20506;-80
2021/06/06 13:17:13;;;;;;;1.80;1.70;;;23.20;61.30;;;;;;5074703;28;20497;-78
2021/06/06 13:23:08;;;;;;;1.80;1.70;;;23.20;60.80;;;;;;5074553;28;20408;-77
2021/06/06 13:25:42;;;;;;;2.13;1.70;;;23.20;61.00;;;;;;5065622;28;20046;-79
2021/06/06 13:28:16;;;;;;;1.58;1.48;;;23.40;60.70;;;;;;5072903;28;20048;-77
2021/06/06 13:34:07;;;;;;;2.53;1.83;;;23.40;60.20;;;;;;5074351;28;20035;-78